createdAt,value
2019-05-09T00:00:04.162Z,0.20
2019-05-09T00:01:04.091Z,0.20
2019-05-09T00:02:04.045Z,0.40
2019-05-09T00:03:04.034Z,0.30
2019-05-09T00:04:04.018Z,0.30
2019-05-09T00:05:04.017Z,0.30
2019-05-09T00:06:04.630Z,0.30
2019-05-09T00:07:03.995Z,0.30
2019-05-09T00:08:03.988Z,0.20
2019-05-09T00:09:03.975Z,0.20
2019-05-09T00:10:04.222Z,0.30
2019-05-09T00:11:03.960Z,0.30
2019-05-09T00:12:03.966Z,0.20
2019-05-09T00:13:03.942Z,0.20
2019-05-09T00:14:04.618Z,0.20
2019-05-09T00:15:04.566Z,0.20
2019-05-09T00:16:03.927Z,0.30
2019-05-09T00:17:03.976Z,0.20
2019-05-09T00:18:04.133Z,0.20
2019-05-09T00:19:03.882Z,0.20
2019-05-09T00:20:03.877Z,0.20
2019-05-09T00:21:04.194Z,0.20
2019-05-09T00:22:03.857Z,0.30
2019-05-09T00:23:03.845Z,0.30
2019-05-09T00:24:03.835Z,0.30
2019-05-09T00:25:03.832Z,0.40
2019-05-09T00:26:04.285Z,0.30
2019-05-09T00:27:03.991Z,0.30
2019-05-09T00:28:04.220Z,0.30
2019-05-09T00:29:03.936Z,0.40
2019-05-09T00:30:03.971Z,0.40
2019-05-09T00:31:03.776Z,0.20
2019-05-09T00:32:03.768Z,0.30
2019-05-09T00:33:03.879Z,0.20
2019-05-09T00:34:04.286Z,0.20
2019-05-09T00:35:04.071Z,0.20
2019-05-09T00:36:04.378Z,0.30
2019-05-09T00:37:03.720Z,0.30
2019-05-09T00:38:04.426Z,0.20
2019-05-09T00:39:04.148Z,0.20
2019-05-09T00:40:04.102Z,0.20
2019-05-09T00:41:03.947Z,0.30
2019-05-09T00:42:04.349Z,0.20
2019-05-09T00:43:04.108Z,0.30
2019-05-09T00:44:03.654Z,0.20
2019-05-09T00:45:04.194Z,0.20
2019-05-09T00:46:04.337Z,0.30
2019-05-09T00:47:04.253Z,0.30
2019-05-09T00:48:03.638Z,0.20
2019-05-09T00:49:05.060Z,0.30
2019-05-09T00:50:05.193Z,0.20
2019-05-09T00:51:03.674Z,0.20
2019-05-09T00:52:03.736Z,0.20
2019-05-09T00:53:03.579Z,0.30
2019-05-09T00:54:04.177Z,0.30
2019-05-09T00:55:03.996Z,0.20
2019-05-09T00:56:04.276Z,0.20
2019-05-09T00:57:03.536Z,0.20
2019-05-09T00:58:04.179Z,0.20
2019-05-09T00:59:04.186Z,0.20
2019-05-09T01:00:04.074Z,0.30
2019-05-09T01:01:04.360Z,0.20
2019-05-09T01:02:04.083Z,0.30
2019-05-09T01:03:04.121Z,0.20
2019-05-09T01:04:04.285Z,0.30
2019-05-09T01:05:04.218Z,0.30
2019-05-09T01:06:04.224Z,0.30
2019-05-09T01:07:03.657Z,0.20
2019-05-09T01:08:04.211Z,0.20
2019-05-09T01:09:04.204Z,0.40
2019-05-09T01:10:04.284Z,0.20
2019-05-09T01:11:11.730Z,0.40
2019-05-09T01:12:03.983Z,0.20
2019-05-09T01:13:03.732Z,0.20
2019-05-09T01:14:03.706Z,0.30
2019-05-09T01:15:03.562Z,0.30
2019-05-09T01:16:04.434Z,0.20
2019-05-09T01:17:04.217Z,0.20
2019-05-09T01:18:04.399Z,0.20
2019-05-09T01:19:03.815Z,0.30
2019-05-09T01:20:03.585Z,0.20
2019-05-09T01:21:04.024Z,0.40
2019-05-09T01:22:03.875Z,0.30
2019-05-09T01:23:03.598Z,0.30
2019-05-09T01:24:03.549Z,0.20
2019-05-09T01:25:04.175Z,0.40
2019-05-09T01:26:03.999Z,0.20
2019-05-09T01:27:03.759Z,0.30
2019-05-09T01:28:03.493Z,0.20
2019-05-09T01:29:04.378Z,0.30
2019-05-09T01:30:04.621Z,0.30
2019-05-09T01:31:04.089Z,0.30
2019-05-09T01:32:03.594Z,0.20
2019-05-09T01:33:03.705Z,0.30
2019-05-09T01:34:04.148Z,0.20
2019-05-09T01:35:03.867Z,0.30
2019-05-09T01:36:03.868Z,0.20
2019-05-09T01:37:03.577Z,0.30
2019-05-09T01:38:03.689Z,0.20
2019-05-09T01:39:03.317Z,0.30
2019-05-09T01:40:04.294Z,0.30
2019-05-09T01:41:04.015Z,0.30
2019-05-09T01:42:03.425Z,0.30
2019-05-09T01:43:04.514Z,0.20
2019-05-09T01:44:04.121Z,0.20
2019-05-09T01:45:03.737Z,0.20
2019-05-09T01:46:03.753Z,0.20
2019-05-09T01:47:03.939Z,0.20
2019-05-09T01:48:03.372Z,0.20
2019-05-09T01:49:03.303Z,0.30
2019-05-09T01:50:03.899Z,0.30
2019-05-09T01:51:03.383Z,0.30
2019-05-09T01:52:03.497Z,0.20
2019-05-09T01:53:04.002Z,0.20
2019-05-09T01:54:03.785Z,0.20
2019-05-09T01:55:03.716Z,0.30
2019-05-09T01:56:03.820Z,0.30
2019-05-09T01:57:03.524Z,0.20
2019-05-09T01:58:03.414Z,0.20
2019-05-09T01:59:03.145Z,0.30
2019-05-09T02:00:04.193Z,0.30
2019-05-09T02:01:03.705Z,0.20
2019-05-09T02:02:08.185Z,0.20
2019-05-09T02:03:03.334Z,0.30
2019-05-09T02:04:04.055Z,0.20
2019-05-09T02:05:04.132Z,0.20
2019-05-09T02:06:03.703Z,0.20
2019-05-09T02:07:04.013Z,0.30
2019-05-09T02:08:03.390Z,0.20
2019-05-09T02:09:03.546Z,0.30
2019-05-09T02:10:03.507Z,0.20
2019-05-09T02:11:03.728Z,0.20
2019-05-09T02:12:03.771Z,0.30
2019-05-09T02:13:03.163Z,0.40
2019-05-09T02:14:04.122Z,0.20
2019-05-09T02:15:03.948Z,0.30
2019-05-09T02:16:03.422Z,0.30
2019-05-09T02:17:10.475Z,0.20
2019-05-09T02:18:56.771Z,0.30
2019-05-09T02:19:56.729Z,0.20
2019-05-09T02:20:56.724Z,0.30
2019-05-09T02:21:56.711Z,0.20
2019-05-09T02:22:56.704Z,0.20
2019-05-09T02:23:56.698Z,0.20
2019-05-09T02:24:56.681Z,0.20
2019-05-09T02:25:56.675Z,0.20
2019-05-09T02:26:56.665Z,0.20
2019-05-09T02:27:56.658Z,0.20
2019-05-09T02:28:56.649Z,0.20
2019-05-09T02:29:56.633Z,0.40
2019-05-09T02:30:56.632Z,0.20
2019-05-09T02:31:56.623Z,0.20
2019-05-09T02:32:56.605Z,0.20
2019-05-09T02:33:56.603Z,0.30
2019-05-09T02:34:56.596Z,0.30
2019-05-09T02:36:01.286Z,0.30
2019-05-09T02:36:58.730Z,0.20
2019-05-09T02:37:58.621Z,0.20
2019-05-09T02:38:59.053Z,0.30
2019-05-09T02:39:59.222Z,0.20
2019-05-09T02:40:59.282Z,0.20
2019-05-09T02:42:07.638Z,0.20
2019-05-09T02:42:59.047Z,0.30
2019-05-09T02:43:58.583Z,0.20
2019-05-09T02:44:59.291Z,0.20
2019-05-09T02:45:59.526Z,0.20
2019-05-09T02:46:58.808Z,0.20
2019-05-09T02:47:58.788Z,0.30
2019-05-09T02:48:59.176Z,0.30
2019-05-09T02:49:58.933Z,0.30
2019-05-09T02:50:59.816Z,0.20
2019-05-09T02:51:59.105Z,0.20
2019-05-09T02:52:59.032Z,0.30
2019-05-09T02:53:58.554Z,0.20
2019-05-09T02:54:58.389Z,0.40
2019-05-09T02:55:58.493Z,0.20
2019-05-09T02:56:57.997Z,0.20
2019-05-09T02:57:59.039Z,0.30
2019-05-09T02:58:58.947Z,0.30
2019-05-09T02:59:59.000Z,0.40
2019-05-09T03:00:59.462Z,0.20
2019-05-09T03:01:58.520Z,0.20
2019-05-09T03:02:59.228Z,0.30
2019-05-09T03:03:58.887Z,0.30
2019-05-09T03:04:58.163Z,0.20
2019-05-09T03:05:59.466Z,0.20
2019-05-09T03:06:59.545Z,0.30
2019-05-09T03:07:58.419Z,0.30
2019-05-09T03:08:59.089Z,0.20
2019-05-09T03:09:58.274Z,0.20
2019-05-09T03:10:58.864Z,0.20
2019-05-09T03:11:59.069Z,0.20
2019-05-09T03:12:59.162Z,0.20
2019-05-09T03:13:58.656Z,0.30
2019-05-09T03:14:58.715Z,0.30
2019-05-09T03:15:58.629Z,0.30
2019-05-09T03:16:58.677Z,0.40
2019-05-09T03:17:59.487Z,0.30
2019-05-09T03:18:58.488Z,0.30
2019-05-09T03:19:58.583Z,0.20
2019-05-09T03:20:58.536Z,0.20
2019-05-09T03:21:58.463Z,0.30
2019-05-09T03:22:58.342Z,0.30
2019-05-09T03:23:58.889Z,0.20
2019-05-09T03:24:58.856Z,0.20
2019-05-09T03:25:58.865Z,0.30
2019-05-09T03:26:59.246Z,0.20
2019-05-09T03:27:58.676Z,0.30
2019-05-09T03:28:59.172Z,0.30
2019-05-09T03:29:58.779Z,0.30
2019-05-09T03:30:59.166Z,0.30
2019-05-09T03:31:59.735Z,0.40
2019-05-09T03:32:59.397Z,0.20
2019-05-09T03:33:59.158Z,0.30
2019-05-09T03:34:57.934Z,0.30
2019-05-09T03:35:57.419Z,0.30
2019-05-09T03:36:58.032Z,0.30
2019-05-09T03:37:57.220Z,0.40
2019-05-09T03:38:57.831Z,0.20
2019-05-09T03:39:57.975Z,0.30
2019-05-09T03:40:57.905Z,0.20
2019-05-09T03:41:57.415Z,0.30
2019-05-09T03:42:57.463Z,0.30
2019-05-09T03:43:58.345Z,0.20
2019-05-09T03:44:58.085Z,0.30
2019-05-09T03:45:58.292Z,0.30
2019-05-09T03:46:58.096Z,0.20
2019-05-09T03:47:58.178Z,0.30
2019-05-09T03:48:58.133Z,0.20
2019-05-09T03:49:55.870Z,0.20
2019-05-09T03:50:57.718Z,0.40
2019-05-09T03:51:55.852Z,0.30
2019-05-09T03:52:57.862Z,0.40
2019-05-09T03:53:57.593Z,0.40
2019-05-09T03:54:57.799Z,0.30
2019-05-09T03:55:57.624Z,0.30
2019-05-09T03:56:57.220Z,0.40
2019-05-09T03:57:57.939Z,0.20
2019-05-09T03:58:57.748Z,0.40
2019-05-09T03:59:57.273Z,0.20
2019-05-09T04:00:57.784Z,0.20
2019-05-09T04:01:55.758Z,0.30
2019-05-09T04:02:57.891Z,0.30
2019-05-09T04:03:55.732Z,0.30
2019-05-09T04:04:57.666Z,0.30
2019-05-09T04:06:02.125Z,0.30
2019-05-09T04:06:57.953Z,0.30
2019-05-09T04:07:55.699Z,0.30
2019-05-09T04:08:55.688Z,0.40
2019-05-09T04:09:55.680Z,0.30
2019-05-09T04:10:58.398Z,0.30
2019-05-09T04:11:58.411Z,0.30
2019-05-09T04:12:57.175Z,0.30
2019-05-09T04:13:57.999Z,0.20
2019-05-09T04:14:58.256Z,0.20
2019-05-09T04:15:55.621Z,0.50
2019-05-09T04:16:57.522Z,0.20
2019-05-09T04:17:57.829Z,0.20
2019-05-09T04:18:57.962Z,0.30
2019-05-09T04:19:57.749Z,0.30
2019-05-09T04:20:57.346Z,0.20
2019-05-09T04:21:57.583Z,0.30
2019-05-09T04:22:59.264Z,0.30
2019-05-09T04:23:55.540Z,0.30
2019-05-09T04:24:57.477Z,0.30
2019-05-09T04:25:55.521Z,0.40
2019-05-09T04:26:57.466Z,0.30
2019-05-09T04:27:55.512Z,0.30
2019-05-09T04:28:57.651Z,0.30
2019-05-09T04:29:57.414Z,0.30
2019-05-09T04:30:55.474Z,0.30
2019-05-09T04:31:57.432Z,0.20
2019-05-09T04:32:55.455Z,0.30
2019-05-09T04:33:57.357Z,0.20
2019-05-09T04:34:57.732Z,0.30
2019-05-09T04:35:57.764Z,0.20
2019-05-09T04:36:57.439Z,0.20
2019-05-09T04:37:55.406Z,0.30
2019-05-09T04:38:57.471Z,0.20
2019-05-09T04:39:59.553Z,0.30
2019-05-09T04:40:55.375Z,0.20
2019-05-09T04:42:03.672Z,0.50
2019-05-09T04:43:08.902Z,0.30
2019-05-09T04:43:57.378Z,0.20
2019-05-09T04:44:57.318Z,0.20
2019-05-09T04:45:55.324Z,0.40
2019-05-09T04:47:00.066Z,0.20
2019-05-09T04:47:57.690Z,0.30
2019-05-09T04:48:59.535Z,0.30
2019-05-09T04:49:55.288Z,0.20
2019-05-09T04:50:57.427Z,0.30
2019-05-09T04:51:55.271Z,0.30
2019-05-09T04:52:55.263Z,0.30
2019-05-09T04:53:55.251Z,0.30
2019-05-09T04:54:57.465Z,0.20
2019-05-09T04:55:55.231Z,0.30
2019-05-09T04:56:57.240Z,0.30
2019-05-09T04:57:57.229Z,0.30
2019-05-09T04:58:55.202Z,0.30
2019-05-09T04:59:57.404Z,0.40
2019-05-09T05:00:57.226Z,0.30
2019-05-09T05:01:55.172Z,0.20
2019-05-09T05:02:55.162Z,0.30
2019-05-09T05:03:57.193Z,0.30
2019-05-09T05:04:55.142Z,0.20
2019-05-09T05:05:55.136Z,0.30
2019-05-09T05:06:55.122Z,0.20
2019-05-09T05:07:57.233Z,0.30
2019-05-09T05:08:55.107Z,0.30
2019-05-09T05:09:55.093Z,0.20
2019-05-09T05:10:55.088Z,0.20
2019-05-09T05:11:55.077Z,0.30
2019-05-09T05:12:57.210Z,0.20
2019-05-09T05:13:55.054Z,0.20
2019-05-09T05:14:55.049Z,0.20
2019-05-09T05:15:55.041Z,0.30
2019-05-09T05:16:58.237Z,0.20
2019-05-09T05:17:55.025Z,0.20
2019-05-09T05:18:55.009Z,0.20
2019-05-09T05:19:55.005Z,0.30
2019-05-09T05:20:54.996Z,0.20
2019-05-09T05:21:54.984Z,0.20
2019-05-09T05:22:54.979Z,0.10
2019-05-09T05:23:54.967Z,0.20
2019-05-09T05:24:55.864Z,0.10
2019-05-09T05:25:54.950Z,0.20
2019-05-09T05:26:54.940Z,0.10
2019-05-09T05:27:54.930Z,0.10
2019-05-09T05:28:54.928Z,0.20
2019-05-09T05:29:54.917Z,0.20
2019-05-09T05:30:54.908Z,0.20
2019-05-09T05:31:54.900Z,0.10
2019-05-09T05:32:54.890Z,0.20
2019-05-09T05:33:54.886Z,0.20
2019-05-09T05:34:54.877Z,0.10
2019-05-09T05:35:56.838Z,0.10
2019-05-09T05:36:54.863Z,0.20
2019-05-09T05:37:54.857Z,0.20
2019-05-09T05:38:54.852Z,0.10
2019-05-09T05:39:54.839Z,0.10
2019-05-09T05:40:54.832Z,0.10
2019-05-09T05:41:54.827Z,0.10
2019-05-09T05:42:54.815Z,0.10
2019-05-09T05:43:54.810Z,0.10
2019-05-09T05:44:54.804Z,0.10
2019-05-09T05:45:54.802Z,0.20
2019-05-09T05:46:54.804Z,0.20
2019-05-09T05:47:54.779Z,0.10
2019-05-09T05:48:54.773Z,0.10
2019-05-09T05:49:54.766Z,0.10
2019-05-09T05:50:54.764Z,0.10
2019-05-09T05:51:54.756Z,0.10
2019-05-09T05:52:54.751Z,0.10
2019-05-09T05:53:54.742Z,0.10
2019-05-09T05:54:54.734Z,0.10
2019-05-09T05:55:54.730Z,0.10
2019-05-09T05:56:54.720Z,0.10
2019-05-09T05:57:54.714Z,0.10
2019-05-09T05:58:54.708Z,0.20
2019-05-09T05:59:54.699Z,0.10
2019-05-09T06:00:54.698Z,0.10
2019-05-09T06:01:54.696Z,0.10
2019-05-09T06:02:54.698Z,0.10
2019-05-09T06:03:54.677Z,0.10
2019-05-09T06:04:54.674Z,0.10
2019-05-09T06:05:54.667Z,0.10
2019-05-09T06:06:54.660Z,0.10
2019-05-09T06:07:54.656Z,0.10
2019-05-09T06:08:54.643Z,0.10
2019-05-09T06:09:54.639Z,0.10
2019-05-09T06:10:54.638Z,0.10
2019-05-09T06:11:54.632Z,0.10
2019-05-09T06:12:54.625Z,0.10
2019-05-09T06:14:03.950Z,0.10
2019-05-09T06:14:54.615Z,0.10
2019-05-09T06:15:54.625Z,0.10
2019-05-09T06:16:54.615Z,0.00
2019-05-09T06:17:54.602Z,0.10
2019-05-09T06:18:54.593Z,0.10
2019-05-09T06:19:54.593Z,0.00
2019-05-09T06:20:54.589Z,0.00
2019-05-09T06:21:54.581Z,0.00
2019-05-09T06:22:54.574Z,0.10
2019-05-09T06:23:54.572Z,0.10
2019-05-09T06:24:54.567Z,0.10
2019-05-09T06:25:54.570Z,0.10
2019-05-09T06:26:54.557Z,0.10
2019-05-09T06:27:54.596Z,0.10
2019-05-09T06:28:54.543Z,0.10
2019-05-09T06:29:54.535Z,0.20
2019-05-09T06:30:54.536Z,0.00
2019-05-09T06:31:54.568Z,0.10
2019-05-09T06:32:54.522Z,0.10
2019-05-09T06:33:54.514Z,0.10
2019-05-09T06:34:54.510Z,0.10
2019-05-09T06:35:54.502Z,0.10
2019-05-09T06:36:54.515Z,0.10
2019-05-09T06:37:54.543Z,0.10
2019-05-09T06:38:54.511Z,0.10
2019-05-09T06:39:54.486Z,0.10
2019-05-09T06:40:54.469Z,0.10
2019-05-09T06:41:57.356Z,0.10
2019-05-09T06:42:54.463Z,0.00
2019-05-09T06:44:09.506Z,0.10
2019-05-09T06:44:54.456Z,0.10
2019-05-09T06:45:54.447Z,0.10
2019-05-09T06:46:54.439Z,0.10
2019-05-09T06:47:54.437Z,0.10
2019-05-09T06:48:54.439Z,0.10
2019-05-09T06:49:54.424Z,0.10
2019-05-09T06:50:54.420Z,0.10
2019-05-09T06:51:54.416Z,0.10
2019-05-09T06:52:54.413Z,0.10
2019-05-09T06:53:54.406Z,0.10
2019-05-09T06:54:54.398Z,0.10
2019-05-09T06:55:54.392Z,0.10
2019-05-09T06:56:54.386Z,0.10
2019-05-09T06:57:54.383Z,0.10
2019-05-09T06:58:54.379Z,0.10
2019-05-09T06:59:54.400Z,0.10
2019-05-09T07:00:54.370Z,0.10
2019-05-09T07:01:54.366Z,0.10
2019-05-09T07:02:57.444Z,0.00
2019-05-09T07:03:54.358Z,0.00
2019-05-09T07:04:54.366Z,0.00
2019-05-09T07:05:54.348Z,0.00
2019-05-09T07:06:54.347Z,0.00
2019-05-09T07:07:54.343Z,0.00
2019-05-09T07:08:54.348Z,0.00
2019-05-09T07:09:54.331Z,0.00
2019-05-09T07:10:54.336Z,0.10
2019-05-09T07:11:54.333Z,0.00
2019-05-09T07:12:54.318Z,0.00
2019-05-09T07:13:54.318Z,0.00
2019-05-09T07:14:54.321Z,0.00
2019-05-09T07:15:54.315Z,0.00
2019-05-09T07:16:54.320Z,0.00
2019-05-09T07:17:54.325Z,0.00
2019-05-09T07:18:54.302Z,0.00
2019-05-09T07:19:54.312Z,0.00
2019-05-09T07:20:54.296Z,0.00
2019-05-09T07:21:54.370Z,0.00
2019-05-09T07:22:54.294Z,0.00
2019-05-09T07:23:54.295Z,0.00
2019-05-09T07:24:58.016Z,0.00
2019-05-09T07:25:54.292Z,0.00
2019-05-09T07:26:54.286Z,0.00
2019-05-09T07:27:54.281Z,0.00
2019-05-09T07:28:54.277Z,0.00
2019-05-09T07:29:54.282Z,0.00
2019-05-09T07:30:54.295Z,0.00
2019-05-09T07:31:54.286Z,0.00
2019-05-09T07:32:54.273Z,0.00
2019-05-09T07:33:54.279Z,0.00
2019-05-09T07:34:54.264Z,0.00
2019-05-09T07:35:54.267Z,0.00
2019-05-09T07:36:54.265Z,0.00
2019-05-09T07:37:54.265Z,0.00
2019-05-09T07:38:54.267Z,0.00
2019-05-09T07:39:54.264Z,0.00
2019-05-09T07:40:54.265Z,0.00
2019-05-09T07:41:54.256Z,0.00
2019-05-09T07:42:54.256Z,0.00
2019-05-09T07:43:54.258Z,0.00
2019-05-09T07:44:54.279Z,0.00
2019-05-09T07:45:54.257Z,0.00
2019-05-09T07:46:54.243Z,0.00
2019-05-09T07:47:54.239Z,0.00
2019-05-09T07:48:54.241Z,0.00
2019-05-09T07:49:54.236Z,0.00
2019-05-09T07:50:54.264Z,0.10
2019-05-09T07:51:54.227Z,0.00
2019-05-09T07:52:54.224Z,0.00
2019-05-09T07:53:54.221Z,0.10
2019-05-09T07:54:54.223Z,0.00
2019-05-09T07:55:54.223Z,0.00
2019-05-09T07:56:54.213Z,0.10
2019-05-09T07:57:55.570Z,0.00
2019-05-09T07:58:54.210Z,0.10
2019-05-09T07:59:54.200Z,0.10
2019-05-09T08:00:54.205Z,0.10
2019-05-09T08:01:54.195Z,0.10
2019-05-09T08:02:54.191Z,0.10
2019-05-09T08:03:54.196Z,0.00
2019-05-09T08:04:54.184Z,0.10
2019-05-09T08:05:54.181Z,0.10
2019-05-09T08:06:54.176Z,0.10
2019-05-09T08:07:54.171Z,0.00
2019-05-09T08:08:54.163Z,0.10
2019-05-09T08:09:54.165Z,0.10
2019-05-09T08:10:54.170Z,0.00
2019-05-09T08:11:54.157Z,0.10
2019-05-09T08:12:54.150Z,0.00
2019-05-09T08:13:54.151Z,0.00
2019-05-09T08:15:07.604Z,0.10
2019-05-09T08:15:54.148Z,0.10
2019-05-09T08:16:54.140Z,0.00
2019-05-09T08:17:54.160Z,0.00
2019-05-09T08:18:54.132Z,0.10
2019-05-09T08:19:54.130Z,0.00
2019-05-09T08:20:54.127Z,0.00
2019-05-09T08:21:54.127Z,0.00
2019-05-09T08:22:58.678Z,0.00
2019-05-09T08:23:54.131Z,0.00
2019-05-09T08:24:54.119Z,0.00
2019-05-09T08:25:54.122Z,0.00
2019-05-09T08:26:54.115Z,0.00
2019-05-09T08:27:54.113Z,0.00
2019-05-09T08:28:54.110Z,0.00
2019-05-09T08:29:54.106Z,0.00
2019-05-09T08:30:54.905Z,0.00
2019-05-09T08:31:54.104Z,0.00
2019-05-09T08:32:54.115Z,0.10
2019-05-09T08:33:54.102Z,0.00
2019-05-09T08:34:54.099Z,0.00
2019-05-09T08:35:54.096Z,0.10
2019-05-09T08:36:54.085Z,0.00
2019-05-09T08:37:54.094Z,0.10
2019-05-09T08:38:54.088Z,0.10
2019-05-09T08:39:54.080Z,0.10
2019-05-09T08:40:54.076Z,0.10
2019-05-09T08:41:54.076Z,0.10
2019-05-09T08:42:54.072Z,0.10
2019-05-09T08:43:54.076Z,0.10
2019-05-09T08:44:54.065Z,0.00
2019-05-09T08:45:54.067Z,0.10
2019-05-09T08:46:54.058Z,0.00
2019-05-09T08:47:54.056Z,0.10
2019-05-09T08:48:54.099Z,0.10
2019-05-09T08:49:54.066Z,0.00
2019-05-09T08:50:54.047Z,0.10
2019-05-09T08:52:09.232Z,0.10
2019-05-09T08:52:54.041Z,0.10
2019-05-09T08:53:54.034Z,0.00
2019-05-09T08:54:54.033Z,0.00
2019-05-09T08:55:54.029Z,0.00
2019-05-09T08:56:54.026Z,0.10
2019-05-09T08:57:54.025Z,0.00
2019-05-09T08:58:57.789Z,0.10
2019-05-09T08:59:54.033Z,0.10
2019-05-09T09:00:54.022Z,0.10
2019-05-09T09:02:12.281Z,0.00
2019-05-09T09:02:54.005Z,0.00
2019-05-09T09:03:54.007Z,0.00
2019-05-09T09:04:54.005Z,0.10
2019-05-09T09:05:54.003Z,0.10
2019-05-09T09:06:54.341Z,0.10
2019-05-09T09:07:57.632Z,0.10
2019-05-09T09:08:53.988Z,0.00
2019-05-09T09:09:53.988Z,0.00
2019-05-09T09:10:53.986Z,0.00
2019-05-09T09:11:53.980Z,0.00
2019-05-09T09:12:53.980Z,0.00
2019-05-09T09:13:53.977Z,0.10
2019-05-09T09:14:53.970Z,0.10
2019-05-09T09:16:11.763Z,0.00
2019-05-09T09:16:53.971Z,0.10
2019-05-09T09:17:53.974Z,0.00
2019-05-09T09:18:53.989Z,0.00
2019-05-09T09:19:53.960Z,0.00
2019-05-09T09:20:53.968Z,0.00
2019-05-09T09:21:56.983Z,0.00
2019-05-09T09:22:53.955Z,0.10
2019-05-09T09:23:53.955Z,0.00
2019-05-09T09:24:53.952Z,0.00
2019-05-09T09:25:53.962Z,0.00
2019-05-09T09:26:53.948Z,0.00
2019-05-09T09:27:53.951Z,0.00
2019-05-09T09:28:53.948Z,0.00
2019-05-09T09:29:53.949Z,0.00
2019-05-09T09:30:53.952Z,0.00
2019-05-09T09:31:53.938Z,0.00
2019-05-09T09:32:53.940Z,0.00
2019-05-09T09:33:53.943Z,0.00
2019-05-09T09:34:53.945Z,0.00
2019-05-09T09:35:53.955Z,0.00
2019-05-09T09:36:53.932Z,0.00
2019-05-09T09:37:53.932Z,0.00
2019-05-09T09:38:53.932Z,0.00
2019-05-09T09:39:53.931Z,0.00
2019-05-09T09:40:53.930Z,0.00
2019-05-09T09:41:53.922Z,0.00
2019-05-09T09:42:53.920Z,0.00
2019-05-09T09:43:53.918Z,0.10
2019-05-09T09:44:53.913Z,0.00
2019-05-09T09:46:07.171Z,0.00
2019-05-09T09:46:53.913Z,0.00
2019-05-09T09:47:53.912Z,0.00
2019-05-09T09:48:53.900Z,0.00
2019-05-09T09:49:55.069Z,0.10
2019-05-09T09:50:53.900Z,0.10
2019-05-09T09:51:53.900Z,0.00
2019-05-09T09:52:53.890Z,0.10
2019-05-09T09:53:53.889Z,0.10
2019-05-09T09:54:53.895Z,0.10
2019-05-09T09:55:53.887Z,0.10
2019-05-09T09:56:53.877Z,0.10
2019-05-09T09:57:53.881Z,0.10
2019-05-09T09:58:53.871Z,0.10
2019-05-09T09:59:53.871Z,0.10
2019-05-09T10:00:53.864Z,0.10
2019-05-09T10:01:53.860Z,0.00
2019-05-09T10:02:53.859Z,0.00
2019-05-09T10:03:53.858Z,0.00
2019-05-09T10:04:53.861Z,0.00
2019-05-09T10:05:53.854Z,0.00
2019-05-09T10:06:53.869Z,0.00
2019-05-09T10:07:53.853Z,0.00
2019-05-09T10:08:53.850Z,0.00
2019-05-09T10:09:53.847Z,0.00
2019-05-09T10:10:53.846Z,0.00
2019-05-09T10:11:56.966Z,0.00
2019-05-09T10:12:53.853Z,0.00
2019-05-09T10:13:53.841Z,0.00
2019-05-09T10:14:53.839Z,0.10
2019-05-09T10:15:53.841Z,0.00
2019-05-09T10:16:53.833Z,0.00
2019-05-09T10:17:53.839Z,0.10
2019-05-09T10:18:53.833Z,0.00
2019-05-09T10:19:53.829Z,0.00
2019-05-09T10:20:53.828Z,0.00
2019-05-09T10:21:53.822Z,0.10
2019-05-09T10:22:59.760Z,0.00
2019-05-09T10:23:53.829Z,0.00
2019-05-09T10:24:53.820Z,0.00
2019-05-09T10:25:53.813Z,0.00
2019-05-09T10:26:53.807Z,0.00
2019-05-09T10:27:53.811Z,0.10
2019-05-09T10:28:53.807Z,0.10
2019-05-09T10:29:53.798Z,0.00
2019-05-09T10:30:53.793Z,0.10
2019-05-09T10:31:53.797Z,0.00
2019-05-09T10:32:53.783Z,0.10
2019-05-09T10:33:53.784Z,0.10
2019-05-09T10:34:53.787Z,0.10
2019-05-09T10:35:53.793Z,0.00
2019-05-09T10:36:53.770Z,0.10
2019-05-09T10:37:53.773Z,0.10
2019-05-09T10:38:53.771Z,0.10
2019-05-09T10:39:53.766Z,0.00
2019-05-09T10:40:53.759Z,0.10
2019-05-09T10:41:53.762Z,0.10
2019-05-09T10:42:53.749Z,0.00
2019-05-09T10:43:53.749Z,0.00
2019-05-09T10:44:53.738Z,0.10
2019-05-09T10:45:53.737Z,0.10
2019-05-09T10:46:58.894Z,0.10
2019-05-09T10:47:53.729Z,0.10
2019-05-09T10:48:53.731Z,0.00
2019-05-09T10:49:53.719Z,0.10
2019-05-09T10:50:54.803Z,0.10
2019-05-09T10:51:53.714Z,0.10
2019-05-09T10:52:53.708Z,0.10
2019-05-09T10:53:53.699Z,0.10
2019-05-09T10:54:53.697Z,0.10
2019-05-09T10:55:53.691Z,0.20
2019-05-09T10:56:53.685Z,0.10
2019-05-09T10:57:53.691Z,0.00
2019-05-09T10:58:53.679Z,0.10
2019-05-09T10:59:53.676Z,0.10
2019-05-09T11:00:53.674Z,0.10
2019-05-09T11:01:53.676Z,0.10
2019-05-09T11:02:53.662Z,0.10
2019-05-09T11:03:53.665Z,0.10
2019-05-09T11:04:53.666Z,0.10
2019-05-09T11:05:53.659Z,0.10
2019-05-09T11:06:53.650Z,0.30
2019-05-09T11:07:53.645Z,0.50
2019-05-09T11:08:53.642Z,0.50
2019-05-09T11:09:53.638Z,0.90
2019-05-09T11:10:53.632Z,0.70
2019-05-09T11:11:53.634Z,0.30
2019-05-09T11:12:53.630Z,0.60
2019-05-09T11:13:53.628Z,0.20
2019-05-09T11:14:53.622Z,0.10
2019-05-09T11:15:53.650Z,0.00
2019-05-09T11:17:06.840Z,0.00
2019-05-09T11:17:53.617Z,0.10
2019-05-09T11:18:53.614Z,0.00
2019-05-09T11:19:53.606Z,0.00
2019-05-09T11:20:53.609Z,0.00
2019-05-09T11:21:53.604Z,0.00
2019-05-09T11:22:53.606Z,0.00
2019-05-09T11:23:53.600Z,0.00
2019-05-09T11:24:53.602Z,0.00
2019-05-09T11:25:53.605Z,0.00
2019-05-09T11:26:55.530Z,0.00
2019-05-09T11:28:06.708Z,0.00
2019-05-09T11:28:53.607Z,0.00
2019-05-09T11:29:53.585Z,0.00
2019-05-09T11:30:53.583Z,0.30
2019-05-09T11:31:53.579Z,0.00
2019-05-09T11:32:53.580Z,0.20
2019-05-09T11:33:53.579Z,0.10
2019-05-09T11:34:53.613Z,0.00
2019-05-09T11:35:53.573Z,0.10
2019-05-09T11:36:53.602Z,0.00
2019-05-09T11:37:53.566Z,0.00
2019-05-09T11:38:53.573Z,0.00
2019-05-09T11:39:53.563Z,0.00
2019-05-09T11:40:53.558Z,0.00
2019-05-09T11:41:53.560Z,0.00
2019-05-09T11:42:53.554Z,0.00
2019-05-09T11:43:53.552Z,0.00
2019-05-09T11:44:53.546Z,0.00
2019-05-09T11:45:53.547Z,0.00
2019-05-09T11:46:53.543Z,0.00
2019-05-09T11:47:53.547Z,0.00
2019-05-09T11:48:53.547Z,0.10
2019-05-09T11:49:53.536Z,0.20
2019-05-09T11:50:53.537Z,0.10
2019-05-09T11:51:53.530Z,0.10
2019-05-09T11:52:53.521Z,0.00
2019-05-09T11:53:53.526Z,0.10
2019-05-09T11:54:53.519Z,0.10
2019-05-09T11:55:53.547Z,0.10
2019-05-09T11:56:53.508Z,0.10
2019-05-09T11:57:53.509Z,0.00
2019-05-09T11:58:53.507Z,0.00
2019-05-09T11:59:53.503Z,0.00
2019-05-09T12:00:53.506Z,0.10
2019-05-09T12:01:53.494Z,0.00
2019-05-09T12:02:53.491Z,0.10
2019-05-09T12:03:53.485Z,0.10
2019-05-09T12:04:53.482Z,0.00
2019-05-09T12:05:53.480Z,0.10
2019-05-09T12:06:53.477Z,0.10
2019-05-09T12:07:53.477Z,0.10
2019-05-09T12:08:53.465Z,0.10
2019-05-09T12:09:53.475Z,0.10
2019-05-09T12:10:53.460Z,0.10
2019-05-09T12:11:53.460Z,0.10
2019-05-09T12:12:53.453Z,0.10
2019-05-09T12:13:53.448Z,0.10
2019-05-09T12:14:53.447Z,0.00
2019-05-09T12:15:53.444Z,0.10
2019-05-09T12:16:53.440Z,0.10
2019-05-09T12:17:58.391Z,0.00
2019-05-09T12:18:53.432Z,0.10
2019-05-09T12:20:09.093Z,0.10
2019-05-09T12:20:53.426Z,0.00
2019-05-09T12:21:53.419Z,0.00
2019-05-09T12:22:53.417Z,0.00
2019-05-09T12:23:53.411Z,0.10
2019-05-09T12:24:54.131Z,0.00
2019-05-09T12:25:53.398Z,0.10
2019-05-09T12:26:53.402Z,0.10
2019-05-09T12:27:53.394Z,0.00
2019-05-09T12:28:53.396Z,0.00
2019-05-09T12:29:53.394Z,0.10
2019-05-09T12:30:53.384Z,0.10
2019-05-09T12:31:53.558Z,0.10
2019-05-09T12:32:53.378Z,0.10
2019-05-09T12:33:53.376Z,0.00
2019-05-09T12:34:53.372Z,0.10
2019-05-09T12:35:53.373Z,0.10
2019-05-09T12:36:53.363Z,0.10
2019-05-09T12:37:53.363Z,0.00
2019-05-09T12:38:53.443Z,0.10
2019-05-09T12:39:53.355Z,0.10
2019-05-09T12:40:53.346Z,0.00
2019-05-09T12:41:53.347Z,0.10
2019-05-09T12:42:53.359Z,0.10
2019-05-09T12:43:53.342Z,0.10
2019-05-09T12:44:53.330Z,0.00
2019-05-09T12:45:53.333Z,0.10
2019-05-09T12:46:53.331Z,0.10
2019-05-09T12:48:06.109Z,0.10
2019-05-09T12:48:53.325Z,0.10
2019-05-09T12:49:53.315Z,0.10
2019-05-09T12:50:53.313Z,0.00
2019-05-09T12:51:53.312Z,0.10
2019-05-09T12:52:53.307Z,0.00
2019-05-09T12:53:53.307Z,0.10
2019-05-09T12:54:53.300Z,0.10
2019-05-09T12:55:53.295Z,0.00
2019-05-09T12:56:53.297Z,0.10
2019-05-09T12:57:53.288Z,0.10
2019-05-09T12:58:53.280Z,0.10
2019-05-09T12:59:53.281Z,0.10
2019-05-09T13:00:53.280Z,0.10
2019-05-09T13:01:53.272Z,0.10
2019-05-09T13:02:53.267Z,0.00
2019-05-09T13:03:53.268Z,0.10
2019-05-09T13:04:53.286Z,0.10
2019-05-09T13:05:53.259Z,0.10
2019-05-09T13:06:53.253Z,0.10
2019-05-09T13:07:53.251Z,0.10
2019-05-09T13:08:53.243Z,0.10
2019-05-09T13:09:53.240Z,0.10
2019-05-09T13:10:53.237Z,0.00
2019-05-09T13:11:53.230Z,0.10
2019-05-09T13:12:53.231Z,0.10
2019-05-09T13:13:53.223Z,0.00
2019-05-09T13:14:53.224Z,0.10
2019-05-09T13:15:53.216Z,0.10
2019-05-09T13:16:53.868Z,0.00
2019-05-09T13:17:53.208Z,0.10
2019-05-09T13:18:53.204Z,0.00